LHA2509 EDDS-LGKO
Flight info
| Callsign | LHA2509 |
|---|---|
| Flight time | N/A |
| Altitude | 35000 |
| Route | ABTA4H ABTAL L173 RIXED Y161 MAH L173 EBEDA L603 LATLO DCT OBEDI DCT LULUD/N0447F370 DCT MEDUX DCT KOGAT DCT TALAS UN130 MES UN139 LURUS UL995 KOPAR KOPA1M |
| Aircraft | A320/M-SDE1E2FGIJ1RWYZ/LB1 |
Departure
| Time | N/A |
|---|---|
| Airport | Stuttgart Airport (EDDS) |
Arrival
| Time | 2026-04-27 13:20 |
|---|---|
| Airport | Kos International Airport "Ippokratis" (LGKO) |
| Time | Latitude | Longitude | Altitude | Speed | Heading |
|---|---|---|---|---|---|
| 2026-04-27 12:20 | 41.20853 | 21.80885 | 37165 ft | 470 kts | 150° |
| 2026-04-27 12:21 | 41.18080 | 21.83156 | 37166 ft | 470 kts | 150° |
| 2026-04-27 12:21 | 41.12592 | 21.87908 | 37173 ft | 471 kts | 145° |
| 2026-04-27 12:22 | 41.07562 | 21.93438 | 37182 ft | 473 kts | 139° |
| 2026-04-27 12:22 | 41.03089 | 21.99756 | 37188 ft | 474 kts | 132° |
| 2026-04-27 12:23 | 40.99105 | 22.06646 | 37190 ft | 471 kts | 130° |
| 2026-04-27 12:23 | 40.95195 | 22.13562 | 37192 ft | 466 kts | 131° |
| 2026-04-27 12:24 | 40.91319 | 22.20350 | 37192 ft | 464 kts | 131° |
| 2026-04-27 12:24 | 40.87372 | 22.27238 | 37196 ft | 464 kts | 131° |
| 2026-04-27 12:25 | 40.83471 | 22.34034 | 37197 ft | 464 kts | 131° |
| 2026-04-27 12:25 | 40.79567 | 22.40824 | 37198 ft | 464 kts | 131° |
| 2026-04-27 12:26 | 40.75696 | 22.47539 | 37200 ft | 464 kts | 131° |
| 2026-04-27 12:26 | 40.71777 | 22.54319 | 37203 ft | 464 kts | 131° |
| 2026-04-27 12:27 | 40.67889 | 22.61029 | 37210 ft | 464 kts | 131° |
| 2026-04-27 12:27 | 40.63983 | 22.67761 | 37214 ft | 464 kts | 132° |
| 2026-04-27 12:28 | 40.60072 | 22.74486 | 37217 ft | 463 kts | 132° |
| 2026-04-27 12:28 | 40.56176 | 22.81172 | 37216 ft | 463 kts | 132° |
| 2026-04-27 12:29 | 40.52253 | 22.87884 | 37217 ft | 464 kts | 131° |
| 2026-04-27 12:29 | 40.48324 | 22.94593 | 37216 ft | 465 kts | 131° |
| 2026-04-27 12:30 | 40.44226 | 23.01116 | 37216 ft | 463 kts | 136° |
| 2026-04-27 12:30 | 40.39812 | 23.07245 | 37217 ft | 463 kts | 137° |
| 2026-04-27 12:31 | 40.35397 | 23.13333 | 37217 ft | 463 kts | 137° |
| 2026-04-27 12:31 | 40.30966 | 23.19440 | 37217 ft | 464 kts | 137° |
| 2026-04-27 12:32 | 40.26527 | 23.25548 | 37217 ft | 463 kts | 137° |
| 2026-04-27 12:32 | 40.22099 | 23.31630 | 37217 ft | 463 kts | 137° |
| 2026-04-27 12:33 | 40.17658 | 23.37717 | 37217 ft | 463 kts | 137° |
| 2026-04-27 12:33 | 40.13224 | 23.43783 | 37217 ft | 463 kts | 137° |
| 2026-04-27 12:34 | 40.08779 | 23.49851 | 37217 ft | 463 kts | 137° |
| 2026-04-27 12:34 | 40.04326 | 23.55918 | 37217 ft | 463 kts | 137° |
| 2026-04-27 12:35 | 39.99903 | 23.61933 | 37215 ft | 463 kts | 137° |
| 2026-04-27 12:35 | 39.95440 | 23.67990 | 37209 ft | 463 kts | 138° |
| 2026-04-27 12:36 | 39.91001 | 23.73999 | 37201 ft | 463 kts | 138° |
| 2026-04-27 12:36 | 39.86521 | 23.80054 | 37195 ft | 463 kts | 138° |
| 2026-04-27 12:37 | 39.82064 | 23.86066 | 37192 ft | 463 kts | 138° |
| 2026-04-27 12:37 | 39.77631 | 23.92033 | 37191 ft | 463 kts | 138° |
| 2026-04-27 12:38 | 39.73152 | 23.98050 | 37191 ft | 463 kts | 138° |
| 2026-04-27 12:38 | 39.68691 | 24.04032 | 37190 ft | 463 kts | 138° |
| 2026-04-27 12:39 | 39.64210 | 24.10028 | 37190 ft | 463 kts | 138° |
| 2026-04-27 12:39 | 39.59745 | 24.15992 | 37190 ft | 463 kts | 138° |
| 2026-04-27 12:40 | 39.55273 | 24.21952 | 37191 ft | 463 kts | 138° |
| 2026-04-27 12:40 | 39.50786 | 24.27922 | 37190 ft | 464 kts | 138° |
| 2026-04-27 12:41 | 39.46299 | 24.33880 | 37191 ft | 463 kts | 138° |
| 2026-04-27 12:41 | 39.41813 | 24.39826 | 37191 ft | 463 kts | 138° |
| 2026-04-27 12:42 | 39.37318 | 24.45770 | 37190 ft | 463 kts | 138° |
| 2026-04-27 12:42 | 39.32841 | 24.51687 | 37190 ft | 463 kts | 137° |
| 2026-04-27 12:43 | 39.28365 | 24.57677 | 37191 ft | 463 kts | 137° |
| 2026-04-27 12:43 | 39.23909 | 24.63638 | 37191 ft | 463 kts | 137° |
| 2026-04-27 12:44 | 39.19441 | 24.69599 | 37190 ft | 463 kts | 138° |
| 2026-04-27 12:44 | 39.14970 | 24.75546 | 37190 ft | 463 kts | 138° |
| 2026-04-27 12:45 | 39.10505 | 24.81471 | 37189 ft | 463 kts | 138° |
| 2026-04-27 12:45 | 39.05988 | 24.87356 | 37190 ft | 463 kts | 139° |
| 2026-04-27 12:46 | 39.01474 | 24.93199 | 37191 ft | 462 kts | 139° |
| 2026-04-27 12:46 | 38.96958 | 24.99037 | 37190 ft | 461 kts | 138° |
| 2026-04-27 12:47 | 38.92453 | 25.04853 | 37190 ft | 462 kts | 138° |
| 2026-04-27 12:47 | 38.87904 | 25.10718 | 37190 ft | 464 kts | 138° |
| 2026-04-27 12:48 | 38.83378 | 25.16546 | 37186 ft | 465 kts | 137° |
| 2026-04-27 12:48 | 38.78817 | 25.22406 | 37169 ft | 467 kts | 137° |
| 2026-04-27 12:49 | 38.74223 | 25.28302 | 37139 ft | 468 kts | 137° |
| 2026-04-27 12:49 | 38.69634 | 25.34177 | 37110 ft | 468 kts | 137° |
| 2026-04-27 12:50 | 38.65035 | 25.40053 | 37092 ft | 468 kts | 137° |
| 2026-04-27 12:50 | 38.60452 | 25.45896 | 37085 ft | 468 kts | 137° |
| 2026-04-27 12:51 | 38.55842 | 25.51764 | 37082 ft | 468 kts | 137° |
| 2026-04-27 12:51 | 38.51261 | 25.57582 | 37082 ft | 468 kts | 137° |
| 2026-04-27 12:52 | 38.46661 | 25.63414 | 37082 ft | 468 kts | 137° |
| 2026-04-27 12:52 | 38.42031 | 25.69274 | 37081 ft | 468 kts | 138° |
| 2026-04-27 12:53 | 38.35135 | 25.77986 | 37081 ft | 468 kts | 138° |
| 2026-04-27 12:53 | 38.30479 | 25.83772 | 37081 ft | 467 kts | 141° |
| 2026-04-27 12:54 | 38.25397 | 25.88789 | 37081 ft | 463 kts | 149° |
| 2026-04-27 12:54 | 38.19817 | 25.92780 | 37081 ft | 460 kts | 158° |
| 2026-04-27 12:55 | 38.13926 | 25.95736 | 37082 ft | 458 kts | 163° |
| 2026-04-27 12:55 | 38.07956 | 25.98432 | 36804 ft | 459 kts | 163° |
| 2026-04-27 12:56 | 38.04954 | 25.99790 | 36272 ft | 457 kts | 163° |
| 2026-04-27 12:56 | 38.01985 | 26.01135 | 35488 ft | 460 kts | 163° |
| 2026-04-27 12:56 | 37.98985 | 26.02496 | 34627 ft | 464 kts | 163° |
| 2026-04-27 12:56 | 37.95928 | 26.03883 | 33760 ft | 467 kts | 163° |
| 2026-04-27 12:57 | 37.92918 | 26.05249 | 32912 ft | 469 kts | 163° |
| 2026-04-27 12:57 | 37.89881 | 26.06625 | 32032 ft | 471 kts | 163° |
| 2026-04-27 12:57 | 37.86758 | 26.08040 | 31128 ft | 472 kts | 163° |
| 2026-04-27 12:57 | 37.83699 | 26.09427 | 30498 ft | 467 kts | 163° |
| 2026-04-27 12:58 | 37.80684 | 26.10793 | 29951 ft | 461 kts | 163° |
| 2026-04-27 12:58 | 37.77704 | 26.12142 | 29429 ft | 455 kts | 163° |
| 2026-04-27 12:58 | 37.74742 | 26.13479 | 28918 ft | 449 kts | 163° |
| 2026-04-27 12:58 | 37.71863 | 26.14778 | 28422 ft | 444 kts | 163° |
| 2026-04-27 12:59 | 37.68950 | 26.16088 | 27918 ft | 438 kts | 163° |
| 2026-04-27 12:59 | 37.66132 | 26.17355 | 27428 ft | 433 kts | 163° |
| 2026-04-27 12:59 | 37.63333 | 26.18613 | 26940 ft | 427 kts | 163° |
| 2026-04-27 12:59 | 37.60543 | 26.19865 | 26449 ft | 423 kts | 163° |
| 2026-04-27 13:00 | 37.57817 | 26.21087 | 25967 ft | 418 kts | 163° |
| 2026-04-27 13:00 | 37.55081 | 26.22313 | 25479 ft | 414 kts | 163° |
| 2026-04-27 13:00 | 37.52407 | 26.23511 | 24999 ft | 410 kts | 163° |
| 2026-04-27 13:00 | 37.49750 | 26.24699 | 24518 ft | 406 kts | 163° |
| 2026-04-27 13:01 | 37.47102 | 26.25884 | 24035 ft | 403 kts | 163° |
| 2026-04-27 13:01 | 37.44488 | 26.27051 | 23556 ft | 399 kts | 163° |
| 2026-04-27 13:01 | 37.41897 | 26.28208 | 23079 ft | 396 kts | 163° |
| 2026-04-27 13:01 | 37.39317 | 26.29359 | 22603 ft | 393 kts | 163° |
| 2026-04-27 13:02 | 37.36764 | 26.30498 | 22133 ft | 390 kts | 163° |
| 2026-04-27 13:02 | 37.34201 | 26.31639 | 21660 ft | 388 kts | 163° |
| 2026-04-27 13:02 | 37.31688 | 26.32759 | 21195 ft | 385 kts | 163° |
| 2026-04-27 13:02 | 37.29193 | 26.33869 | 20732 ft | 383 kts | 163° |
| 2026-04-27 13:03 | 37.26685 | 26.34984 | 20265 ft | 380 kts | 163° |
| 2026-04-27 13:03 | 37.24208 | 26.36084 | 19801 ft | 378 kts | 163° |
| 2026-04-27 13:03 | 37.21747 | 26.37176 | 19337 ft | 376 kts | 163° |
| 2026-04-27 13:03 | 37.19306 | 26.38260 | 18875 ft | 374 kts | 163° |
| 2026-04-27 13:04 | 37.16873 | 26.39340 | 18413 ft | 372 kts | 163° |
| 2026-04-27 13:04 | 37.14453 | 26.40414 | 17951 ft | 370 kts | 163° |
| 2026-04-27 13:04 | 37.12038 | 26.41484 | 17490 ft | 368 kts | 163° |
| 2026-04-27 13:04 | 37.09654 | 26.42542 | 17033 ft | 367 kts | 163° |
| 2026-04-27 13:05 | 37.07251 | 26.43607 | 16572 ft | 365 kts | 163° |
| 2026-04-27 13:05 | 37.04878 | 26.44658 | 16116 ft | 363 kts | 163° |
| 2026-04-27 13:05 | 37.02518 | 26.45702 | 15662 ft | 361 kts | 163° |
| 2026-04-27 13:05 | 37.00168 | 26.46740 | 15209 ft | 359 kts | 163° |
| 2026-04-27 13:06 | 36.97815 | 26.47780 | 14755 ft | 357 kts | 163° |
| 2026-04-27 13:06 | 36.95502 | 26.48800 | 14308 ft | 354 kts | 163° |
| 2026-04-27 13:06 | 36.93203 | 26.49813 | 13860 ft | 352 kts | 163° |
| 2026-04-27 13:06 | 36.90932 | 26.50859 | 13401 ft | 351 kts | 158° |
| 2026-04-27 13:07 | 36.88938 | 26.52627 | 12916 ft | 356 kts | 135° |
| 2026-04-27 13:07 | 36.87611 | 26.55227 | 12471 ft | 357 kts | 116° |
| 2026-04-27 13:07 | 36.86638 | 26.58078 | 12026 ft | 355 kts | 114° |
| 2026-04-27 13:07 | 36.85715 | 26.60910 | 11579 ft | 353 kts | 114° |
| 2026-04-27 13:08 | 36.84786 | 26.63715 | 11127 ft | 350 kts | 114° |
| 2026-04-27 13:08 | 36.83846 | 26.66481 | 10674 ft | 348 kts | 116° |
| 2026-04-27 13:08 | 36.82686 | 26.69104 | 10356 ft | 338 kts | 126° |
| 2026-04-27 13:08 | 36.81276 | 26.71366 | 10225 ft | 323 kts | 133° |
| 2026-04-27 13:09 | 36.79809 | 26.73406 | 10099 ft | 310 kts | 135° |
| 2026-04-27 13:09 | 36.78386 | 26.75332 | 9908 ft | 301 kts | 135° |
| 2026-04-27 13:09 | 36.76974 | 26.77242 | 9518 ft | 301 kts | 135° |
| 2026-04-27 13:09 | 36.75567 | 26.79159 | 9150 ft | 299 kts | 134° |
| 2026-04-27 13:10 | 36.74169 | 26.81073 | 8793 ft | 297 kts | 134° |
| 2026-04-27 13:10 | 36.72785 | 26.82973 | 8444 ft | 296 kts | 134° |
| 2026-04-27 13:10 | 36.71413 | 26.84860 | 8101 ft | 294 kts | 134° |
| 2026-04-27 13:10 | 36.70071 | 26.86762 | 7758 ft | 292 kts | 129° |
| 2026-04-27 13:11 | 36.68928 | 26.88850 | 7418 ft | 291 kts | 120° |
| 2026-04-27 13:11 | 36.67999 | 26.91053 | 7088 ft | 289 kts | 116° |
| 2026-04-27 13:11 | 36.67114 | 26.93312 | 6753 ft | 288 kts | 116° |
| 2026-04-27 13:11 | 36.66244 | 26.95545 | 6427 ft | 286 kts | 116° |
| 2026-04-27 13:12 | 36.65385 | 26.97729 | 6120 ft | 284 kts | 116° |
| 2026-04-27 13:12 | 36.64509 | 26.99948 | 5778 ft | 283 kts | 117° |
| 2026-04-27 13:12 | 36.63637 | 27.02126 | 5433 ft | 282 kts | 117° |
| 2026-04-27 13:12 | 36.62762 | 27.04296 | 5101 ft | 280 kts | 117° |
| 2026-04-27 13:13 | 36.61896 | 27.06445 | 4889 ft | 273 kts | 117° |
| 2026-04-27 13:13 | 36.61075 | 27.08482 | 4871 ft | 259 kts | 117° |
| 2026-04-27 13:13 | 36.60289 | 27.10435 | 4856 ft | 245 kts | 117° |
| 2026-04-27 13:13 | 36.59566 | 27.12327 | 4821 ft | 243 kts | 108° |
| 2026-04-27 13:14 | 36.59482 | 27.14362 | 4633 ft | 233 kts | 73° |
| 2026-04-27 13:14 | 36.60020 | 27.16231 | 4386 ft | 229 kts | 64° |
| 2026-04-27 13:14 | 36.60670 | 27.18036 | 4121 ft | 227 kts | 63° |
| 2026-04-27 13:14 | 36.61301 | 27.19810 | 3859 ft | 226 kts | 60° |
| 2026-04-27 13:15 | 36.62290 | 27.21253 | 3523 ft | 218 kts | 22° |
| 2026-04-27 13:15 | 36.63708 | 27.21477 | 3356 ft | 199 kts | 339° |
| 2026-04-27 13:15 | 36.64878 | 27.20684 | 3357 ft | 189 kts | 323° |
| 2026-04-27 13:15 | 36.65915 | 27.19789 | 3282 ft | 176 kts | 323° |
| 2026-04-27 13:16 | 36.66904 | 27.18958 | 3114 ft | 167 kts | 324° |
| 2026-04-27 13:16 | 36.67845 | 27.18189 | 2867 ft | 157 kts | 324° |
| 2026-04-27 13:16 | 36.68722 | 27.17486 | 2623 ft | 144 kts | 325° |
| 2026-04-27 13:16 | 36.69530 | 27.16845 | 2409 ft | 134 kts | 325° |
| 2026-04-27 13:17 | 36.70316 | 27.16229 | 2246 ft | 133 kts | 326° |
| 2026-04-27 13:17 | 36.71097 | 27.15618 | 2076 ft | 133 kts | 326° |
| 2026-04-27 13:17 | 36.71877 | 27.15011 | 1903 ft | 132 kts | 326° |
| 2026-04-27 13:17 | 36.72658 | 27.14404 | 1729 ft | 132 kts | 326° |
| 2026-04-27 13:18 | 36.73435 | 27.13799 | 1554 ft | 132 kts | 326° |
| 2026-04-27 13:18 | 36.74206 | 27.13200 | 1381 ft | 131 kts | 326° |
| 2026-04-27 13:18 | 36.74986 | 27.12594 | 1206 ft | 131 kts | 326° |
| 2026-04-27 13:18 | 36.75751 | 27.12000 | 1033 ft | 130 kts | 326° |
| 2026-04-27 13:19 | 36.76524 | 27.11398 | 856 ft | 130 kts | 326° |
| 2026-04-27 13:19 | 36.77295 | 27.10799 | 689 ft | 130 kts | 326° |
| 2026-04-27 13:19 | 36.78056 | 27.10207 | 507 ft | 129 kts | 326° |
| 2026-04-27 13:19 | 36.78805 | 27.09625 | 379 ft | 122 kts | 327° |
| 2026-04-27 13:20 | 36.79380 | 27.09175 | 393 ft | 72 kts | 323° |
| 2026-04-27 13:20 | 36.79621 | 27.08998 | 401 ft | 23 kts | 329° |
| 2026-04-27 13:20 | 36.79762 | 27.08976 | 406 ft | 18 kts | 4° |
| 2026-04-27 13:20 | 36.79870 | 27.08987 | 410 ft | 13 kts | 4° |
| 2026-04-27 13:21 | 36.79946 | 27.08971 | 413 ft | 9 kts | 334° |
| 2026-04-27 13:21 | 36.79999 | 27.08930 | 414 ft | 7 kts | 326° |
| 2026-04-27 13:21 | 36.80038 | 27.08898 | 415 ft | 6 kts | 328° |
| 2026-04-27 13:21 | 36.80079 | 27.08866 | 415 ft | 7 kts | 328° |
| 2026-04-27 13:22 | 36.80134 | 27.08825 | 416 ft | 10 kts | 329° |
| 2026-04-27 13:22 | 36.80178 | 27.08793 | 416 ft | 2 kts | 347° |
| 2026-04-27 13:22 | 36.80179 | 27.08808 | 417 ft | 3 kts | 107° |
| 2026-04-27 13:22 | 36.80171 | 27.08842 | 417 ft | 4 kts | 99° |
| 2026-04-27 13:23 | 36.80169 | 27.08891 | 418 ft | 5 kts | 90° |
| 2026-04-27 13:23 | 36.80169 | 27.08898 | 418 ft | 0 kts | 91° |